CNC3 weather

Brampton Airport
Brampton, Ontario, Canada

Public forecast

Using degrees Celsius for public forecast. Weather courtesy of forecast.io.

METAR (pilot weather report)

Closest report is Lester B. Pearson International Airport, 11.7 nm (21.7 km) ESE. Retrieved 2019/03/21 23:00 UTC (46 minutes ago):

CYYZ 212300Z 14003KT 15SM OVC022 06/01 A2978 RMK SC8 SLP091

TAF (pilot weather forecast)

Closest forecast is Lester B. Pearson International Airport, 11.7 nm (21.7 km) ESE. Retrieved 2019/03/21 18:39 UTC (5 hours ago):

TAF CYYZ 211738Z 2118/2224 14005KT P6SM OVC030 TEMPO 2118/2120 OVC020 BECMG 2118/2120 20010KT FM212100 26010KT P6SM OVC030 TEMPO 2121/2124 P6SM -SHRA FM220000 29012KT P6SM FEW015 BKN030 FM220800 26010KT P6SM SCT007 BKN015 BECMG 2210/2212 30012KT FM221200 30012KT P6SM BKN020 FM221500 33020G35KT P6SM BKN025 TEMPO 2215/2223 6SM -SN FM222300 34025G35KT P6SM BKN040 RMK NXT FCST BY 212100Z